createdAt,value
2023-03-01T00:01:36.553Z,-5.11
2023-03-01T00:04:32.547Z,-5.18
2023-03-01T00:07:06.387Z,-5.14
2023-03-01T00:09:47.162Z,-5.10
2023-03-01T00:12:16.116Z,-5.06
2023-03-01T00:14:44.321Z,-5.02
2023-03-01T00:17:12.578Z,-4.99
2023-03-01T00:19:41.324Z,-4.97
2023-03-01T00:22:09.487Z,-4.94
2023-03-01T00:24:42.221Z,-4.95
2023-03-01T00:27:10.528Z,-4.96
2023-03-01T00:29:44.345Z,-5.00
2023-03-01T00:32:12.630Z,-5.02
2023-03-01T00:34:41.181Z,-5.04
2023-03-01T00:37:09.675Z,-5.08
2023-03-01T00:39:49.353Z,-5.11
2023-03-01T00:42:20.775Z,-5.13
2023-03-01T00:44:49.030Z,-5.13
2023-03-01T00:47:17.376Z,-5.13
2023-03-01T00:49:46.886Z,-5.13
2023-03-01T00:52:15.195Z,-5.15
2023-03-01T00:54:44.194Z,-5.16
2023-03-01T00:57:12.621Z,-5.21
2023-03-01T00:59:45.314Z,-5.32
2023-03-01T01:02:13.572Z,-5.40
2023-03-01T01:04:43.388Z,-5.43
2023-03-01T01:07:11.776Z,-5.41
2023-03-01T01:09:40.418Z,-5.32
2023-03-01T01:12:08.774Z,-5.26
2023-03-01T01:14:37.931Z,-5.28
2023-03-01T01:17:06.330Z,-5.28
2023-03-01T01:19:39.378Z,-5.28
2023-03-01T01:22:14.416Z,-5.31
2023-03-01T01:24:42.941Z,-5.34
2023-03-01T01:27:16.930Z,-5.38
2023-03-01T01:29:45.208Z,-5.40
2023-03-01T01:32:17.462Z,-5.38
2023-03-01T01:34:47.735Z,-5.36
2023-03-01T01:37:21.857Z,-5.34
2023-03-01T01:39:50.665Z,-5.36
2023-03-01T01:42:19.161Z,-5.36
2023-03-01T01:44:48.247Z,-5.36
2023-03-01T01:47:21.700Z,-5.36
2023-03-01T01:49:54.924Z,-5.37
2023-03-01T01:52:23.842Z,-5.39
2023-03-01T01:55:01.862Z,-5.41
2023-03-01T01:57:35.364Z,-5.42
2023-03-01T02:00:06.541Z,-5.43
2023-03-01T02:02:44.252Z,-5.45
2023-03-01T02:05:14.848Z,-5.50
2023-03-01T02:08:17.518Z,-5.56
2023-03-01T02:10:45.812Z,-5.59
2023-03-01T02:13:20.635Z,-5.61
2023-03-01T02:15:49.517Z,-5.65
2023-03-01T02:18:22.332Z,-5.67
2023-03-01T02:21:02.949Z,-5.70
2023-03-01T02:24:07.930Z,-5.74
2023-03-01T02:26:58.602Z,-5.76
2023-03-01T02:29:27.994Z,-5.78
2023-03-01T02:31:59.723Z,-5.79
2023-03-01T02:34:28.052Z,-5.79
2023-03-01T02:37:06.388Z,-5.79
2023-03-01T02:39:46.039Z,-5.80
2023-03-01T02:42:16.099Z,-5.80
2023-03-01T02:44:46.112Z,-5.82
2023-03-01T02:47:15.569Z,-5.83
2023-03-01T02:49:43.874Z,-5.84
2023-03-01T02:52:40.436Z,-5.82
2023-03-01T02:55:17.235Z,-5.81
2023-03-01T02:57:47.222Z,-5.81
2023-03-01T03:00:28.026Z,-5.79
2023-03-01T03:02:58.429Z,-5.76
2023-03-01T03:05:28.908Z,-5.72
2023-03-01T03:08:01.518Z,-5.69
2023-03-01T03:10:36.575Z,-5.66
2023-03-01T03:13:36.319Z,-5.64
2023-03-01T03:16:31.060Z,-5.63
2023-03-01T03:19:06.213Z,-5.64
2023-03-01T03:21:34.917Z,-5.64
2023-03-01T03:24:06.477Z,-5.63
2023-03-01T03:26:34.831Z,-5.64
2023-03-01T03:29:03.053Z,-5.64
2023-03-01T03:31:31.430Z,-5.62
2023-03-01T03:34:32.349Z,-5.61
2023-03-01T03:37:48.641Z,-5.61
2023-03-01T03:40:17.038Z,-5.60
2023-03-01T03:42:45.787Z,-5.60
2023-03-01T03:45:14.260Z,-5.61
2023-03-01T03:48:09.436Z,-5.62
2023-03-01T03:50:38.778Z,-5.60
2023-03-01T03:53:11.956Z,-5.60
2023-03-01T03:55:40.521Z,-5.61
2023-03-01T03:58:10.833Z,-5.61
2023-03-01T04:01:04.740Z,-5.60
2023-03-01T04:03:34.425Z,-5.59
2023-03-01T04:06:02.766Z,-5.65
2023-03-01T04:08:59.426Z,-5.67
2023-03-01T04:11:31.024Z,-5.68
2023-03-01T04:14:05.621Z,-5.70
2023-03-01T04:16:36.076Z,-5.71
2023-03-01T04:19:10.770Z,-5.73
2023-03-01T04:21:39.039Z,-5.74
2023-03-01T04:24:32.923Z,-5.72
2023-03-01T04:27:01.169Z,-5.71
2023-03-01T04:29:36.008Z,-5.71
2023-03-01T04:32:04.671Z,-5.70
2023-03-01T04:34:33.653Z,-5.69
2023-03-01T04:37:01.916Z,-5.67
2023-03-01T04:39:30.583Z,-5.63
2023-03-01T04:41:59.096Z,-5.54
2023-03-01T04:44:52.928Z,-5.41
2023-03-01T04:47:21.481Z,-5.22
2023-03-01T04:49:49.814Z,-5.04
2023-03-01T04:52:18.215Z,-4.87
2023-03-01T04:54:46.484Z,-4.73
2023-03-01T04:57:14.761Z,-4.55
2023-03-01T04:59:42.973Z,-4.33
2023-03-01T05:02:11.678Z,-4.06
2023-03-01T05:04:40.016Z,-3.78
2023-03-01T05:07:10.211Z,-3.51
2023-03-01T05:09:39.661Z,-3.27
2023-03-01T05:12:08.444Z,-3.05
2023-03-01T05:14:37.156Z,-2.87
2023-03-01T05:17:35.456Z,-2.72
2023-03-01T05:20:29.741Z,-2.63
2023-03-01T05:23:24.149Z,-2.60
2023-03-01T05:25:53.593Z,-2.64
2023-03-01T05:28:47.273Z,-2.78
2023-03-01T05:31:42.308Z,-2.95
2023-03-01T05:34:14.073Z,-3.07
2023-03-01T05:36:42.827Z,-3.14
2023-03-01T05:39:11.208Z,-3.19
2023-03-01T05:41:39.517Z,-3.24
2023-03-01T05:44:10.276Z,-3.27
2023-03-01T05:46:38.590Z,-3.29
2023-03-01T05:49:06.962Z,-3.29
2023-03-01T05:51:35.227Z,-3.27
2023-03-01T05:54:03.622Z,-3.24
2023-03-01T05:57:23.165Z,-3.21
2023-03-01T05:59:55.205Z,-3.16
2023-03-01T06:02:23.537Z,-3.12
2023-03-01T06:04:52.237Z,-3.08
2023-03-01T06:07:20.783Z,-3.03
2023-03-01T06:09:49.048Z,-2.95
2023-03-01T06:12:23.147Z,-2.88
2023-03-01T06:14:51.486Z,-2.82
2023-03-01T06:17:19.702Z,-2.76
2023-03-01T06:19:48.366Z,-2.71
2023-03-01T06:22:17.136Z,-2.67
2023-03-01T06:24:45.568Z,-2.61
2023-03-01T06:27:14.141Z,-2.56
2023-03-01T06:29:46.222Z,-2.54
2023-03-01T06:32:15.217Z,-2.51
2023-03-01T06:34:43.725Z,-2.42
2023-03-01T06:37:12.096Z,-2.34
2023-03-01T06:39:40.364Z,-2.30
2023-03-01T06:42:11.210Z,-2.21
2023-03-01T06:44:43.818Z,-2.16
2023-03-01T06:47:12.824Z,-2.12
2023-03-01T06:49:41.922Z,-2.11
2023-03-01T06:52:10.146Z,-2.11
2023-03-01T06:54:38.658Z,-2.04
2023-03-01T06:57:32.240Z,-1.97
2023-03-01T07:03:18.917Z,-1.73
2023-03-01T07:05:50.718Z,-1.65
2023-03-01T07:08:19.987Z,-1.56
2023-03-01T07:10:51.679Z,-1.47
2023-03-01T07:13:22.250Z,-1.40
2023-03-01T07:15:53.616Z,-1.32
2023-03-01T07:21:33.331Z,-1.16
2023-03-01T07:24:25.450Z,-1.07
2023-03-01T07:26:54.760Z,-0.99
2023-03-01T07:29:26.461Z,-0.91
2023-03-01T07:31:54.859Z,-0.83
2023-03-01T07:34:23.242Z,-0.77
2023-03-01T07:36:51.696Z,-0.68
2023-03-01T07:39:20.192Z,-0.56
2023-03-01T07:41:48.661Z,-0.47
2023-03-01T07:44:22.909Z,-0.40
2023-03-01T07:46:57.474Z,-0.30
2023-03-01T07:49:27.649Z,-0.20
2023-03-01T07:51:56.095Z,-0.15
2023-03-01T07:54:24.397Z,-0.12
2023-03-01T07:56:57.937Z,-0.06
2023-03-01T08:02:29.032Z,0.16
2023-03-01T08:05:47.322Z,0.25
2023-03-01T08:08:17.497Z,0.31
2023-03-01T08:10:50.634Z,0.36
2023-03-01T08:13:23.586Z,0.42
2023-03-01T08:15:52.201Z,0.58
2023-03-01T08:18:21.150Z,0.70
2023-03-01T08:20:53.591Z,0.72
2023-03-01T08:23:26.758Z,0.73
2023-03-01T08:26:21.269Z,0.82
2023-03-01T08:29:14.396Z,1.00
2023-03-01T08:31:49.543Z,1.22
2023-03-01T08:34:18.897Z,1.37
2023-03-01T08:36:47.951Z,1.48
2023-03-01T08:39:17.618Z,1.59
2023-03-01T08:42:35.853Z,1.83
2023-03-01T08:45:05.296Z,1.95
2023-03-01T08:48:25.674Z,2.04
2023-03-01T08:50:54.079Z,2.20
2023-03-01T08:53:22.349Z,2.26
2023-03-01T08:55:50.876Z,2.34
2023-03-01T08:58:19.546Z,2.43
2023-03-01T09:00:47.815Z,2.51
2023-03-01T09:03:16.757Z,2.59
2023-03-01T09:05:47.181Z,2.73
2023-03-01T09:08:15.798Z,2.92
2023-03-01T09:11:11.004Z,3.11
2023-03-01T09:13:44.187Z,3.37
2023-03-01T09:16:14.570Z,3.57
2023-03-01T09:18:43.283Z,3.69
2023-03-01T09:21:15.359Z,3.71
2023-03-01T09:23:45.756Z,3.76
2023-03-01T09:26:17.603Z,3.84
2023-03-01T09:28:47.564Z,3.91
2023-03-01T09:31:16.285Z,3.96
2023-03-01T09:33:49.288Z,3.95
2023-03-01T09:36:20.166Z,3.90
2023-03-01T09:38:49.661Z,3.85
2023-03-01T09:41:50.270Z,3.87
2023-03-01T09:44:39.265Z,3.93
2023-03-01T09:47:18.724Z,3.98
2023-03-01T09:50:14.307Z,3.99
2023-03-01T09:52:46.303Z,4.01
2023-03-01T09:55:16.425Z,4.10
2023-03-01T09:57:57.419Z,4.17
2023-03-01T10:00:49.185Z,4.22
2023-03-01T10:03:27.857Z,4.27
2023-03-01T10:06:33.915Z,4.37
2023-03-01T10:09:11.309Z,4.52
2023-03-01T10:11:41.531Z,4.65
2023-03-01T10:14:34.496Z,4.72
2023-03-01T10:17:27.907Z,4.84
2023-03-01T10:19:56.960Z,4.98
2023-03-01T10:22:29.684Z,5.02
2023-03-01T10:25:00.457Z,5.02
2023-03-01T10:27:55.062Z,5.08
2023-03-01T10:30:27.789Z,5.16
2023-03-01T10:32:56.581Z,5.13
2023-03-01T10:35:33.544Z,5.22
2023-03-01T10:38:06.306Z,5.38
2023-03-01T10:40:35.746Z,5.52
2023-03-01T10:43:05.938Z,5.64
2023-03-01T10:45:38.452Z,5.67
2023-03-01T10:48:27.332Z,5.74
2023-03-01T10:50:59.221Z,5.74
2023-03-01T10:53:35.031Z,5.74
2023-03-01T10:56:17.025Z,5.81
2023-03-01T10:59:04.746Z,5.77
2023-03-01T11:01:36.122Z,5.65
2023-03-01T11:04:08.203Z,5.50
2023-03-01T11:06:40.550Z,5.31
2023-03-01T11:09:23.776Z,5.11
2023-03-01T11:11:57.584Z,5.05
2023-03-01T11:14:32.203Z,4.99
2023-03-01T11:17:05.207Z,4.94
2023-03-01T11:19:35.161Z,4.84
2023-03-01T11:22:13.460Z,4.80
2023-03-01T11:25:07.414Z,4.75
2023-03-01T11:27:41.605Z,4.80
2023-03-01T11:31:07.114Z,5.02
2023-03-01T11:33:38.140Z,5.17
2023-03-01T11:36:11.644Z,5.19
2023-03-01T11:38:39.849Z,5.10
2023-03-01T11:41:12.595Z,5.01
2023-03-01T11:43:50.130Z,4.91
2023-03-01T11:46:34.244Z,4.93
2023-03-01T11:49:37.360Z,5.14
2023-03-01T11:52:21.279Z,5.20
2023-03-01T11:55:17.696Z,5.08
2023-03-01T11:58:23.144Z,4.66
2023-03-01T12:01:14.031Z,4.27
2023-03-01T12:04:05.194Z,3.77
2023-03-01T12:06:56.683Z,3.35
2023-03-01T12:09:28.822Z,3.12
2023-03-01T12:11:57.338Z,3.08
2023-03-01T12:14:53.597Z,3.13
2023-03-01T12:17:28.703Z,3.13
2023-03-01T12:20:12.366Z,3.15
2023-03-01T12:22:51.568Z,3.21
2023-03-01T12:25:20.368Z,3.15
2023-03-01T12:27:58.469Z,3.11
2023-03-01T12:31:04.538Z,3.05
2023-03-01T12:33:36.198Z,2.99
2023-03-01T12:36:33.906Z,2.95
2023-03-01T12:39:30.174Z,2.90
2023-03-01T12:42:22.084Z,2.94
2023-03-01T12:45:18.180Z,2.94
2023-03-01T12:47:52.774Z,2.91
2023-03-01T12:50:30.766Z,2.96
2023-03-01T12:52:59.474Z,2.88
2023-03-01T12:55:33.172Z,2.79
2023-03-01T12:58:07.048Z,2.72
2023-03-01T13:00:43.059Z,2.67
2023-03-01T13:03:20.891Z,2.61
2023-03-01T13:06:09.833Z,2.50
2023-03-01T13:08:49.983Z,2.41
2023-03-01T13:11:22.268Z,2.37
2023-03-01T13:13:52.768Z,2.36
2023-03-01T13:16:38.270Z,2.32
2023-03-01T13:19:37.672Z,2.25
2023-03-01T13:22:33.321Z,2.12
2023-03-01T13:25:14.745Z,2.06
2023-03-01T13:27:46.347Z,2.01
2023-03-01T13:30:36.874Z,1.98
2023-03-01T13:33:29.971Z,1.95
2023-03-01T13:35:59.092Z,1.84
2023-03-01T13:38:49.515Z,1.75
2023-03-01T13:41:40.328Z,1.66
2023-03-01T13:44:28.104Z,1.61
2023-03-01T13:47:15.005Z,1.54
2023-03-01T13:49:54.562Z,1.48
2023-03-01T13:52:43.367Z,1.41
2023-03-01T13:55:50.837Z,1.37
2023-03-01T13:58:26.755Z,1.35
2023-03-01T14:01:08.510Z,1.31
2023-03-01T14:03:42.897Z,1.30
2023-03-01T14:06:17.782Z,1.33
2023-03-01T14:08:48.015Z,1.38
2023-03-01T14:11:48.630Z,1.38
2023-03-01T14:14:40.162Z,1.36
2023-03-01T14:17:39.422Z,1.34
2023-03-01T14:20:21.506Z,1.29
2023-03-01T14:22:51.834Z,1.24
2023-03-01T14:25:20.231Z,1.21
2023-03-01T14:28:12.584Z,1.19
2023-03-01T14:30:48.379Z,1.17
2023-03-01T14:33:30.191Z,1.14
2023-03-01T14:36:09.919Z,1.13
2023-03-01T14:38:40.240Z,1.13
2023-03-01T14:41:16.167Z,1.11
2023-03-01T14:44:00.041Z,1.11
2023-03-01T14:46:40.776Z,1.08
2023-03-01T14:49:14.285Z,1.04
2023-03-01T14:51:43.242Z,0.99
2023-03-01T14:54:26.952Z,0.95
2023-03-01T14:56:55.941Z,0.90
2023-03-01T14:59:25.782Z,0.85
2023-03-01T15:01:55.910Z,0.79
2023-03-01T15:04:24.788Z,0.74
2023-03-01T15:06:54.176Z,0.70
2023-03-01T15:09:22.722Z,0.65
2023-03-01T15:11:51.182Z,0.59
2023-03-01T15:14:45.696Z,0.53
2023-03-01T15:17:32.086Z,0.49
2023-03-01T15:20:00.709Z,0.47
2023-03-01T15:22:29.122Z,0.44
2023-03-01T15:24:57.353Z,0.43
2023-03-01T15:27:26.409Z,0.42
2023-03-01T15:30:00.737Z,0.40
2023-03-01T15:32:31.737Z,0.40
2023-03-01T15:35:01.997Z,0.40
2023-03-01T15:37:46.272Z,0.39
2023-03-01T15:40:32.961Z,0.39
2023-03-01T15:43:02.492Z,0.39
2023-03-01T15:45:31.520Z,0.37
2023-03-01T15:48:06.836Z,0.37
2023-03-01T15:50:41.092Z,0.38
2023-03-01T15:53:13.296Z,0.39
2023-03-01T15:55:41.783Z,0.41
2023-03-01T15:58:15.696Z,0.44
2023-03-01T16:00:59.480Z,0.46
2023-03-01T16:03:29.337Z,0.48
2023-03-01T16:05:57.974Z,0.49
2023-03-01T16:08:26.198Z,0.50
2023-03-01T16:10:55.747Z,0.50
2023-03-01T16:13:28.334Z,0.47
2023-03-01T16:16:04.659Z,0.46
2023-03-01T16:18:32.970Z,0.44
2023-03-01T16:21:02.592Z,0.42
2023-03-01T16:23:31.956Z,0.37
2023-03-01T16:26:01.285Z,0.32
2023-03-01T16:28:30.699Z,0.29
2023-03-01T16:31:00.009Z,0.29
2023-03-01T16:33:33.428Z,0.28
2023-03-01T16:36:12.159Z,0.28
2023-03-01T16:38:41.100Z,0.28
2023-03-01T16:41:13.897Z,0.29
2023-03-01T16:43:42.305Z,0.28
2023-03-01T16:46:15.271Z,0.26
2023-03-01T16:48:43.471Z,0.25
2023-03-01T16:51:12.286Z,0.23
2023-03-01T16:53:47.771Z,0.22
2023-03-01T16:56:18.649Z,0.20
2023-03-01T16:58:47.884Z,0.19
2023-03-01T17:01:26.774Z,0.15
2023-03-01T17:03:57.578Z,0.11
2023-03-01T17:06:27.806Z,0.05
2023-03-01T17:08:58.205Z,0.01
2023-03-01T17:11:26.512Z,-0.03
2023-03-01T17:13:56.775Z,-0.07
2023-03-01T17:16:25.464Z,-0.11
2023-03-01T17:18:53.841Z,-0.15
2023-03-01T17:21:22.153Z,-0.18
2023-03-01T17:23:52.268Z,-0.23
2023-03-01T17:26:20.945Z,-0.27
2023-03-01T17:28:52.890Z,-0.30
2023-03-01T17:31:21.743Z,-0.36
2023-03-01T17:33:50.432Z,-0.40
2023-03-01T17:36:19.138Z,-0.43
2023-03-01T17:38:47.896Z,-0.47
2023-03-01T17:41:19.088Z,-0.51
2023-03-01T17:43:49.304Z,-0.55
2023-03-01T17:46:17.682Z,-0.58
2023-03-01T17:48:49.869Z,-0.62
2023-03-01T17:51:38.549Z,-0.64
2023-03-01T17:54:07.005Z,-0.67
2023-03-01T17:56:39.973Z,-0.68
2023-03-01T17:59:08.589Z,-0.69
2023-03-01T18:01:42.969Z,-0.68
2023-03-01T18:04:11.570Z,-0.68
2023-03-01T18:06:41.047Z,-0.69
2023-03-01T18:09:09.797Z,-0.73
2023-03-01T18:11:42.528Z,-0.76
2023-03-01T18:14:12.320Z,-0.82
2023-03-01T18:16:41.137Z,-0.88
2023-03-01T18:19:12.451Z,-0.92
2023-03-01T18:21:44.186Z,-0.98
2023-03-01T18:24:12.660Z,-1.03
2023-03-01T18:26:42.046Z,-1.07
2023-03-01T18:29:10.766Z,-1.11
2023-03-01T18:31:42.279Z,-1.15
2023-03-01T18:34:11.767Z,-1.18
2023-03-01T18:36:44.428Z,-1.21
2023-03-01T18:39:15.196Z,-1.25
2023-03-01T18:41:43.691Z,-1.29
2023-03-01T18:44:13.091Z,-1.33
2023-03-01T18:46:42.847Z,-1.34
2023-03-01T18:49:14.584Z,-1.36
2023-03-01T18:51:43.205Z,-1.37
2023-03-01T18:54:12.786Z,-1.38
2023-03-01T18:56:41.345Z,-1.39
2023-03-01T18:59:11.195Z,-1.38
2023-03-01T19:01:42.101Z,-1.36
2023-03-01T19:04:13.078Z,-1.34
2023-03-01T19:06:45.041Z,-1.27
2023-03-01T19:09:16.527Z,-1.20
2023-03-01T19:11:47.930Z,-1.12
2023-03-01T19:14:21.193Z,-1.05
2023-03-01T19:16:58.727Z,-0.98
2023-03-01T19:19:28.872Z,-0.91
2023-03-01T19:22:05.786Z,-0.86
2023-03-01T19:24:37.723Z,-0.80
2023-03-01T19:27:11.104Z,-0.75
2023-03-01T19:29:43.192Z,-0.70
2023-03-01T19:32:14.164Z,-0.65
2023-03-01T19:34:44.491Z,-0.60
2023-03-01T19:38:41.667Z,-0.55
2023-03-01T19:41:15.944Z,-0.55
2023-03-01T19:43:46.051Z,-0.55
2023-03-01T19:46:16.628Z,-0.53
2023-03-01T19:48:45.385Z,-0.54
2023-03-01T19:51:13.735Z,-0.54
2023-03-01T19:53:43.347Z,-0.54
2023-03-01T19:56:11.683Z,-0.55
2023-03-01T19:58:41.033Z,-0.56
2023-03-01T20:01:19.936Z,-0.57
2023-03-01T20:03:49.116Z,-0.57
2023-03-01T20:06:19.111Z,-0.56
2023-03-01T20:08:50.752Z,-0.57
2023-03-01T20:11:19.792Z,-0.57
2023-03-01T20:13:48.744Z,-0.57
2023-03-01T20:16:18.649Z,-0.58
2023-03-01T20:18:47.030Z,-0.58
2023-03-01T20:21:24.308Z,-0.57
2023-03-01T20:23:53.455Z,-0.58
2023-03-01T20:26:22.490Z,-0.58
2023-03-01T20:28:52.347Z,-0.59
2023-03-01T20:31:21.941Z,-0.59
2023-03-01T20:33:50.893Z,-0.60
2023-03-01T20:36:19.536Z,-0.60
2023-03-01T20:38:47.803Z,-0.59
2023-03-01T20:41:20.844Z,-0.58
2023-03-01T20:43:55.141Z,-0.58
2023-03-01T20:46:24.237Z,-0.58
2023-03-01T20:48:52.728Z,-0.58
2023-03-01T20:51:21.074Z,-0.59
2023-03-01T20:53:54.579Z,-0.60
2023-03-01T20:56:23.459Z,-0.62
2023-03-01T20:59:09.632Z,-0.63
2023-03-01T21:01:40.603Z,-0.65
2023-03-01T21:04:10.138Z,-0.67
2023-03-01T21:06:39.850Z,-0.69
2023-03-01T21:09:08.547Z,-0.71
2023-03-01T21:11:41.315Z,-0.73
2023-03-01T21:14:09.738Z,-0.75
2023-03-01T21:16:38.301Z,-0.78
2023-03-01T21:19:12.006Z,-0.82
2023-03-01T21:21:41.536Z,-0.85
2023-03-01T21:24:11.988Z,-0.88
2023-03-01T21:26:42.341Z,-0.91
2023-03-01T21:29:10.559Z,-0.95
2023-03-01T21:31:39.125Z,-0.99
2023-03-01T21:34:07.512Z,-1.01
2023-03-01T21:36:39.074Z,-1.03
2023-03-01T21:39:07.710Z,-1.05
2023-03-01T21:41:37.063Z,-1.08
2023-03-01T21:44:07.442Z,-1.12
2023-03-01T21:46:37.786Z,-1.14
2023-03-01T21:49:07.494Z,-1.17
2023-03-01T21:51:36.836Z,-1.19
2023-03-01T21:54:07.090Z,-1.21
2023-03-01T21:56:39.263Z,-1.21
2023-03-01T21:59:09.450Z,-1.22
2023-03-01T22:01:37.822Z,-1.24
2023-03-01T22:04:06.524Z,-1.25
2023-03-01T22:06:42.481Z,-1.31
2023-03-01T22:09:22.235Z,-1.34
2023-03-01T22:11:54.676Z,-1.37
2023-03-01T22:14:23.060Z,-1.38
2023-03-01T22:16:54.462Z,-1.42
2023-03-01T22:19:22.896Z,-1.45
2023-03-01T22:21:52.140Z,-1.51
2023-03-01T22:24:23.080Z,-1.56
2023-03-01T22:26:51.786Z,-1.56
2023-03-01T22:29:23.910Z,-1.57
2023-03-01T22:31:53.478Z,-1.58
2023-03-01T22:34:22.133Z,-1.58
2023-03-01T22:36:50.812Z,-1.57
2023-03-01T22:39:19.940Z,-1.55
2023-03-01T22:41:48.766Z,-1.52
2023-03-01T22:44:19.628Z,-1.49
2023-03-01T22:46:52.200Z,-1.46
2023-03-01T22:49:20.875Z,-1.44
2023-03-01T22:51:49.191Z,-1.42
2023-03-01T22:54:18.898Z,-1.39
2023-03-01T22:56:49.729Z,-1.35
2023-03-01T22:59:19.209Z,-1.31
2023-03-01T23:01:48.272Z,-1.28
2023-03-01T23:04:18.425Z,-1.25
2023-03-01T23:06:56.402Z,-1.24
2023-03-01T23:09:33.020Z,-1.24
2023-03-01T23:12:06.838Z,-1.24
2023-03-01T23:14:36.431Z,-1.25
2023-03-01T23:17:05.736Z,-1.26
2023-03-01T23:19:34.047Z,-1.27
2023-03-01T23:22:02.345Z,-1.28
2023-03-01T23:24:32.521Z,-1.29
2023-03-01T23:27:02.449Z,-1.30
2023-03-01T23:29:32.485Z,-1.32
2023-03-01T23:32:01.177Z,-1.32
2023-03-01T23:34:33.181Z,-1.33
2023-03-01T23:37:01.931Z,-1.33
2023-03-01T23:39:34.325Z,-1.34
2023-03-01T23:42:02.785Z,-1.35
2023-03-01T23:44:31.246Z,-1.38
2023-03-01T23:47:00.152Z,-1.40
2023-03-01T23:49:28.989Z,-1.43
2023-03-01T23:51:58.073Z,-1.48
2023-03-01T23:54:26.576Z,-1.54
2023-03-01T23:56:54.912Z,-1.59
2023-03-01T23:59:23.740Z,-1.63
